Time;durP1;ratioP1;P1;durP2;ratioP2;P2;SDS_P1;SDS_P2;PMS_P1;PMS_P2;Temp;Humidity;BMP_temperature;BMP_pressure;BME280_temperature;BME280_humidity;BME280_pressure;Samples;Min_cycle;Max_cycle;Signal;HPM_P1;HPM_P2
2021/08/07 17:42:23;;;;;;;2.53;0.50;;;21.20;75.10;;;;;;2601140;53;22762;-70
2021/08/07 17:44:49;;;;;;;1.17;0.57;;;21.20;75.00;;;;;;2310241;54;21838;-68
2021/08/07 17:47:16;;;;;;;1.08;0.50;;;21.30;75.20;;;;;;2303480;54;20924;-67
2021/08/07 17:49:42;;;;;;;1.52;0.40;;;21.30;74.90;;;;;;2303147;53;20978;-71
2021/08/07 17:52:09;;;;;;;0.90;0.30;;;21.30;74.80;;;;;;2308777;58;21155;-71
2021/08/07 17:54:35;;;;;;;1.20;0.50;;;21.30;75.00;;;;;;2308295;58;21082;-66
2021/08/07 17:57:02;;;;;;;1.37;0.50;;;21.30;75.00;;;;;;2308117;58;21130;-69
2021/08/07 17:59:29;;;;;;;0.60;0.32;;;21.30;74.80;;;;;;2308475;58;21539;-70
2021/08/07 18:01:57;;;;;;;2.05;0.50;;;21.30;74.50;;;;;;2307813;58;21059;-68
2021/08/07 18:04:26;;;;;;;0.95;0.40;;;21.30;74.30;;;;;;2307100;58;21226;-71
2021/08/07 18:06:52;;;;;;;1.35;0.57;;;21.30;74.30;;;;;;2307814;58;21095;-68
2021/08/07 18:09:19;;;;;;;1.05;0.35;;;21.30;74.00;;;;;;2307629;58;21051;-70
2021/08/07 18:11:46;;;;;;;0.75;0.30;;;21.20;73.90;;;;;;2307248;58;21193;-68
2021/08/07 18:14:12;;;;;;;0.80;0.30;;;21.20;74.10;;;;;;2302280;58;21226;-67
2021/08/07 18:16:38;;;;;;;0.98;0.30;;;21.20;74.00;;;;;;2397913;54;21075;-68
2021/08/07 18:19:06;;;;;;;1.20;0.50;;;21.20;74.20;;;;;;2545507;54;22027;-71
2021/08/07 18:21:33;;;;;;;1.37;0.37;;;21.20;74.20;;;;;;2545101;54;21055;-68
2021/08/07 18:24:00;;;;;;;0.70;0.32;;;21.20;74.20;;;;;;2306861;58;21062;-67
2021/08/07 18:26:28;;;;;;;0.82;0.30;;;21.10;74.20;;;;;;2307167;58;21592;-68
2021/08/07 18:28:54;;;;;;;1.23;0.47;;;21.10;74.30;;;;;;2306798;58;21043;-67
2021/08/07 18:31:22;;;;;;;1.85;0.50;;;21.10;74.30;;;;;;2307077;58;21152;-67
2021/08/07 18:33:51;;;;;;;0.68;0.30;;;21.10;74.20;;;;;;2472916;54;21078;-68
2021/08/07 18:36:19;;;;;;;0.77;0.30;;;21.10;74.20;;;;;;2305319;58;21983;-69
2021/08/07 18:38:45;;;;;;;1.42;0.50;;;21.00;74.00;;;;;;2306108;58;21071;-67
2021/08/07 18:41:14;;;;;;;1.02;0.40;;;21.00;74.00;;;;;;2305368;58;21082;-68
2021/08/07 18:43:42;;;;;;;1.10;0.30;;;21.00;74.10;;;;;;2545131;54;21086;-68
2021/08/07 18:46:09;;;;;;;0.60;0.30;;;21.00;74.20;;;;;;2305507;58;21075;-70
2021/08/07 18:48:36;;;;;;;0.60;0.30;;;20.90;74.10;;;;;;2305817;58;22110;-68
2021/08/07 18:51:03;;;;;;;1.12;0.40;;;20.90;74.10;;;;;;2357898;54;21126;-69
2021/08/07 18:53:30;;;;;;;0.82;0.37;;;20.90;74.10;;;;;;2304196;58;21059;-67
2021/08/07 18:55:56;;;;;;;0.95;0.50;;;20.90;74.20;;;;;;2304444;58;21109;-68
2021/08/07 18:58:27;;;;;;;1.35;0.40;;;20.90;74.30;;;;;;2520680;54;21058;-70
2021/08/07 19:00:54;;;;;;;0.50;0.20;;;20.80;73.80;;;;;;2372015;54;21127;-67
2021/08/07 19:03:22;;;;;;;2.42;0.45;;;20.80;74.30;;;;;;2305083;58;21110;-67
2021/08/07 19:05:49;;;;;;;0.60;0.32;;;20.80;74.20;;;;;;2305020;58;21095;-68
2021/08/07 19:08:16;;;;;;;0.73;0.30;;;20.80;74.30;;;;;;2304902;58;21445;-67
2021/08/07 19:10:45;;;;;;;0.88;0.40;;;20.70;74.30;;;;;;2305296;58;21074;-69
2021/08/07 19:13:12;;;;;;;0.98;0.40;;;20.70;74.20;;;;;;2305144;58;21063;-68
2021/08/07 19:15:38;;;;;;;1.00;0.50;;;20.70;74.20;;;;;;2305233;58;21067;-67
2021/08/07 19:18:05;;;;;;;1.90;0.40;;;20.70;74.20;;;;;;2305210;58;21066;-67
2021/08/07 19:20:35;;;;;;;2.72;0.40;;;20.70;74.40;;;;;;2305196;58;22032;-68
2021/08/07 19:23:03;;;;;;;1.30;0.35;;;20.60;74.30;;;;;;2543687;54;21689;-69
2021/08/07 19:25:29;;;;;;;2.05;0.50;;;20.70;74.50;;;;;;2304547;58;22863;-66
2021/08/07 19:27:55;;;;;;;0.98;0.40;;;20.60;74.50;;;;;;2316230;54;21034;-67
2021/08/07 19:30:23;;;;;;;1.02;0.30;;;20.60;74.60;;;;;;2334171;54;21008;-67
2021/08/07 19:32:50;;;;;;;1.10;0.40;;;20.60;74.80;;;;;;2579438;53;21053;-67
2021/08/07 19:35:17;;;;;;;1.23;0.60;;;20.60;74.80;;;;;;2578498;53;21055;-67
2021/08/07 19:37:43;;;;;;;1.00;0.35;;;20.60;74.70;;;;;;2419996;53;21068;-67
2021/08/07 19:40:13;;;;;;;0.88;0.40;;;20.60;74.70;;;;;;2333806;57;21064;-69
2021/08/07 19:42:39;;;;;;;1.08;0.40;;;20.60;74.50;;;;;;2534435;53;21119;-69
2021/08/07 19:45:07;;;;;;;1.30;0.40;;;20.70;74.90;;;;;;2320120;57;21104;-68
2021/08/07 19:47:36;;;;;;;1.17;0.45;;;20.70;74.80;;;;;;2342276;53;21631;-70
2021/08/07 19:50:04;;;;;;;1.20;0.50;;;20.70;74.80;;;;;;2306811;53;20936;-67
2021/08/07 19:52:30;;;;;;;0.75;0.32;;;20.70;74.80;;;;;;2310752;54;20939;-67
2021/08/07 19:54:57;;;;;;;1.02;0.40;;;20.70;74.50;;;;;;2288156;54;21026;-69
2021/08/07 19:57:23;;;;;;;1.08;0.50;;;20.60;74.60;;;;;;2303801;54;20927;-67
2021/08/07 19:59:50;;;;;;;1.12;0.40;;;20.70;74.70;;;;;;2282510;55;20995;-67
2021/08/07 20:02:17;;;;;;;0.82;0.40;;;20.60;74.70;;;;;;2294479;54;20953;-67
2021/08/07 20:04:44;;;;;;;1.55;0.47;;;20.60;74.60;;;;;;2290111;54;21065;-66
2021/08/07 20:07:10;;;;;;;0.93;0.45;;;20.60;74.60;;;;;;2287033;55;21044;-72
2021/08/07 20:09:36;;;;;;;0.95;0.50;;;20.60;74.70;;;;;;2308746;54;21485;-69
2021/08/07 20:12:06;;;;;;;0.85;0.45;;;20.60;74.70;;;;;;2312048;53;20967;-69
2021/08/07 20:14:34;;;;;;;1.75;0.55;;;20.60;74.70;;;;;;2319980;53;21492;-70
2021/08/07 20:17:01;;;;;;;0.95;0.40;;;20.60;74.60;;;;;;2315798;53;21883;-68
2021/08/07 20:19:27;;;;;;;1.23;0.30;;;20.60;74.80;;;;;;2343942;53;20973;-71
2021/08/07 20:21:54;;;;;;;1.90;0.80;;;20.60;74.90;;;;;;2408387;53;21033;-71
2021/08/07 20:24:20;;;;;;;3.75;1.42;;;20.60;74.90;;;;;;2341668;53;20964;-72
2021/08/07 20:26:50;;;;;;;4.10;1.58;;;20.60;74.90;;;;;;2388466;53;21075;-70
2021/08/07 20:29:17;;;;;;;1.23;0.57;;;20.60;74.70;;;;;;2389886;53;20989;-71
2021/08/07 20:31:43;;;;;;;3.30;1.40;;;20.60;75.10;;;;;;2348480;53;21057;-71
2021/08/07 20:34:11;;;;;;;1.35;0.50;;;20.60;75.10;;;;;;2350668;53;20999;-71
2021/08/07 20:36:37;;;;;;;2.75;1.00;;;20.60;75.10;;;;;;2359868;53;20980;-71
2021/08/07 20:39:07;;;;;;;1.90;0.60;;;20.60;75.00;;;;;;2346883;53;21045;-69
2021/08/07 20:41:33;;;;;;;1.00;0.50;;;20.60;74.80;;;;;;2451064;53;21033;-70
2021/08/07 20:44:00;;;;;;;1.33;0.50;;;20.60;75.10;;;;;;2351557;53;21329;-70
2021/08/07 20:46:26;;;;;;;2.45;0.40;;;20.60;75.20;;;;;;2318745;53;20912;-73
2021/08/07 20:48:53;;;;;;;4.40;2.20;;;20.60;75.30;;;;;;2492522;53;21727;-70
2021/08/07 20:51:19;;;;;;;3.87;1.50;;;20.60;75.40;;;;;;2345751;53;20917;-69
2021/08/07 20:53:45;;;;;;;1.23;0.50;;;20.60;75.50;;;;;;2464017;53;21021;-70
2021/08/07 20:56:12;;;;;;;1.33;0.47;;;20.60;75.40;;;;;;2315957;53;20950;-73
2021/08/07 20:58:39;;;;;;;1.92;0.60;;;20.70;75.60;;;;;;2316478;53;20998;-72
2021/08/07 21:01:06;;;;;;;1.85;0.70;;;20.70;75.60;;;;;;2361497;53;20980;-74
2021/08/07 21:03:33;;;;;;;2.47;1.00;;;20.60;75.50;;;;;;2349728;54;20944;-70
2021/08/07 21:06:00;;;;;;;1.65;0.50;;;20.70;75.50;;;;;;2322891;53;20919;-70
2021/08/07 21:08:26;;;;;;;1.35;0.50;;;20.70;75.40;;;;;;2510006;54;20948;-74
2021/08/07 21:10:53;;;;;;;1.20;0.45;;;20.70;75.40;;;;;;2325964;53;20957;-72
2021/08/07 21:13:19;;;;;;;0.80;0.40;;;20.70;75.30;;;;;;2322004;53;20992;-71
2021/08/07 21:15:46;;;;;;;2.20;0.50;;;20.60;75.30;;;;;;2316382;54;20975;-73
2021/08/07 21:18:13;;;;;;;0.77;0.40;;;20.70;75.40;;;;;;2338590;53;21290;-73
2021/08/07 21:20:39;;;;;;;1.50;0.30;;;20.60;75.30;;;;;;2321500;53;21003;-74
2021/08/07 21:23:06;;;;;;;1.05;0.40;;;20.60;75.30;;;;;;2332525;54;20947;-72
2021/08/07 21:25:32;;;;;;;1.30;0.43;;;20.60;75.40;;;;;;2341764;54;20936;-73
2021/08/07 21:27:59;;;;;;;0.65;0.35;;;20.60;75.40;;;;;;2336922;53;20928;-73
2021/08/07 21:30:28;;;;;;;0.80;0.30;;;20.60;75.30;;;;;;2295886;54;20993;-72
2021/08/07 21:32:56;;;;;;;1.42;0.60;;;20.60;75.40;;;;;;2339911;53;21876;-74
2021/08/07 21:35:23;;;;;;;0.93;0.30;;;20.60;75.20;;;;;;2330234;54;21483;-72
2021/08/07 21:37:50;;;;;;;1.42;0.30;;;20.60;75.20;;;;;;2316394;54;20968;-73
2021/08/07 21:40:17;;;;;;;1.25;0.50;;;20.60;75.30;;;;;;2381460;53;20983;-71
2021/08/07 21:42:47;;;;;;;0.85;0.40;;;20.60;75.20;;;;;;2322269;54;21745;-73
2021/08/07 21:45:14;;;;;;;1.08;0.40;;;20.60;74.90;;;;;;2330950;53;20971;-72
2021/08/07 21:47:40;;;;;;;1.25;0.40;;;20.60;75.10;;;;;;2568100;53;21044;-69
2021/08/07 21:50:12;;;;;;;1.33;0.45;;;20.60;75.00;;;;;;2323882;53;20955;-73
2021/08/07 21:52:38;;;;;;;1.02;0.43;;;20.60;75.10;;;;;;2498520;54;21071;-73
2021/08/07 21:55:05;;;;;;;1.58;0.55;;;20.60;75.00;;;;;;2317320;53;20992;-68
2021/08/07 21:57:33;;;;;;;1.73;0.50;;;20.60;74.90;;;;;;2323877;54;20957;-70
2021/08/07 22:00:00;;;;;;;1.12;0.50;;;20.60;75.10;;;;;;2309917;53;20944;-70
2021/08/07 22:02:29;;;;;;;1.42;0.55;;;20.60;75.10;;;;;;2336919;54;21007;-71
2021/08/07 22:04:56;;;;;;;1.05;0.40;;;20.60;75.00;;;;;;2337159;54;21741;-68
2021/08/07 22:07:23;;;;;;;1.15;0.50;;;20.60;75.00;;;;;;2555915;54;20996;-72
2021/08/07 22:09:50;;;;;;;1.20;0.50;;;20.60;75.00;;;;;;2333878;54;20961;-69
2021/08/07 22:12:17;;;;;;;1.67;0.55;;;20.50;74.70;;;;;;2471918;53;20953;-72
2021/08/07 22:14:43;;;;;;;2.05;0.60;;;20.50;74.90;;;;;;2485906;53;20987;-69
2021/08/07 22:17:12;;;;;;;1.02;0.50;;;20.50;74.90;;;;;;2313168;53;20995;-71
2021/08/07 22:19:38;;;;;;;1.45;0.60;;;20.50;74.80;;;;;;2316013;53;20999;-70
2021/08/07 22:22:04;;;;;;;1.50;0.80;;;20.50;74.90;;;;;;2315410;53;21007;-68
2021/08/07 22:24:31;;;;;;;1.73;0.50;;;20.50;75.00;;;;;;2556612;53;21579;-69
2021/08/07 22:26:58;;;;;;;1.95;0.52;;;20.50;75.00;;;;;;2316289;53;21062;-70
2021/08/07 22:29:25;;;;;;;2.03;0.55;;;20.50;74.90;;;;;;2322733;53;21057;-71
2021/08/07 22:31:51;;;;;;;1.37;0.50;;;20.50;74.90;;;;;;2322594;53;21669;-68
2021/08/07 22:34:18;;;;;;;1.67;0.68;;;20.40;74.90;;;;;;2325356;54;21060;-72
2021/08/07 22:36:52;;;;;;;1.40;0.60;;;20.50;75.20;;;;;;2340014;53;21047;-71
2021/08/07 22:39:21;;;;;;;1.80;0.52;;;20.50;75.30;;;;;;2320824;53;21901;-70
2021/08/07 22:41:48;;;;;;;0.90;0.47;;;20.50;75.30;;;;;;2322681;53;21796;-70
2021/08/07 22:44:14;;;;;;;1.20;0.57;;;20.50;75.30;;;;;;2303937;53;21535;-71
2021/08/07 22:46:41;;;;;;;1.70;0.60;;;20.50;75.20;;;;;;2328424;53;20964;-69
2021/08/07 22:49:08;;;;;;;1.52;0.57;;;20.40;75.00;;;;;;2328320;54;21007;-69
2021/08/07 22:51:34;;;;;;;2.03;0.52;;;20.40;75.10;;;;;;2343479;53;21029;-70
2021/08/07 22:54:01;;;;;;;2.62;0.73;;;20.40;75.20;;;;;;2344058;54;21021;-68
2021/08/07 22:56:29;;;;;;;2.40;0.47;;;20.40;75.30;;;;;;2524971;52;21012;-69
2021/08/07 22:58:56;;;;;;;1.98;0.77;;;20.40;75.20;;;;;;2590775;52;21031;-69
2021/08/07 23:01:25;;;;;;;2.12;0.70;;;20.40;75.00;;;;;;2472203;52;21545;-69
2021/08/07 23:03:52;;;;;;;1.27;0.52;;;20.30;74.80;;;;;;2346873;54;20950;-70
2021/08/07 23:06:18;;;;;;;1.30;0.60;;;20.30;74.70;;;;;;2590565;52;20915;-69
2021/08/07 23:08:45;;;;;;;3.85;0.60;;;20.20;74.70;;;;;;2542164;52;20982;-70
2021/08/07 23:11:11;;;;;;;2.97;0.73;;;20.20;74.90;;;;;;2337998;54;21135;-71
2021/08/07 23:13:38;;;;;;;2.05;0.62;;;20.20;75.10;;;;;;2569834;52;21496;-70
2021/08/07 23:16:05;;;;;;;2.12;0.77;;;20.10;75.20;;;;;;2506380;52;20950;-73
2021/08/07 23:18:31;;;;;;;2.97;0.98;;;20.10;75.40;;;;;;2442621;52;20965;-71
2021/08/07 23:20:57;;;;;;;1.87;0.70;;;20.10;75.50;;;;;;2344251;54;20998;-69
2021/08/07 23:23:25;;;;;;;2.42;0.75;;;20.00;75.40;;;;;;2346346;54;21519;-71
2021/08/07 23:25:52;;;;;;;1.70;0.68;;;20.00;75.50;;;;;;2337924;53;20961;-68
2021/08/07 23:28:24;;;;;;;2.12;0.57;;;20.00;75.60;;;;;;2343153;53;21021;-70
2021/08/07 23:30:51;;;;;;;2.03;0.70;;;20.00;75.70;;;;;;2327992;54;20981;-71
2021/08/07 23:33:18;;;;;;;1.73;0.70;;;20.00;75.70;;;;;;2341719;54;20961;-70
2021/08/07 23:35:44;;;;;;;1.30;0.47;;;19.90;75.60;;;;;;2346634;53;21054;-70
2021/08/07 23:38:11;;;;;;;2.00;0.70;;;19.90;75.70;;;;;;2424071;52;20994;-69
2021/08/07 23:40:37;;;;;;;1.62;0.60;;;19.90;75.80;;;;;;2343869;54;21048;-69
2021/08/07 23:43:04;;;;;;;1.33;0.68;;;19.90;75.90;;;;;;2354500;53;20923;-70
2021/08/07 23:45:30;;;;;;;1.77;0.75;;;19.90;75.90;;;;;;2343396;54;20897;-70
2021/08/07 23:48:00;;;;;;;2.03;0.80;;;19.90;75.90;;;;;;2343505;54;20960;-70
2021/08/07 23:50:27;;;;;;;0.90;0.50;;;19.90;75.90;;;;;;2590034;52;20913;-70
2021/08/07 23:52:54;;;;;;;2.05;0.90;;;19.90;75.90;;;;;;2347908;53;21025;-71
2021/08/07 23:55:20;;;;;;;4.85;0.75;;;19.90;75.90;;;;;;2342051;54;20951;-69
2021/08/07 23:57:47;;;;;;;2.17;0.70;;;19.90;75.90;;;;;;2333285;53;21984;-70
